Midnight Sun — CFG7615 — position and weather

sailwx.info

Track history (hours):
 
Tides and Currents Weather Stations Pressure Air Temp Water Temp Dewpoint Dewpoint Depression Visibility Wind Speed Wind Dir Waves Ship Positions

Midnight Sun

Last reported at 2015-Jul-27 22:06 UTC. Time now 2015-Aug-04 15:57 UTC.
Position N 49°56' W 124°42'.

Length 25 m.

Type: Pleasure craft. MMSI: 316001152.

Date/timePositionNaut miles runAvg speedWind from/ knotsBaromVisibWave heightAir tempDewpointWater temp
2015-Jul-27 22:06N 49°56' W 124°42'5 9.1
2015-Jul-27 21:33N 49°52' W 124°37'6 5.5
2015-Jul-27 20:30N 49°48' W 124°31'7 7.7
2015-Jul-27 19:33N 49°44' W 124°22'9 8.7
2015-Jul-27 18:33N 49°39' W 124°10'6 6.0
2015-Jul-27 17:33N 49°38' W 124°01'0 0.2
2015-Jul-27 16:32N 49°38' W 124°02'0 0.0
2015-Jul-27 15:32N 49°38' W 124°02'0 0.0
2015-Jul-27 14:32N 49°38' W 124°02'0 0.0
2015-Jul-27 13:31N 49°38' W 124°02'0 0.0
2015-Jul-27 12:31N 49°38' W 124°02'0 0.0
2015-Jul-27 11:33N 49°38' W 124°02'0 0.0
2015-Jul-27 10:33N 49°38' W 124°02'0 0.0
2015-Jul-27 09:33N 49°38' W 124°02'0 0.0
2015-Jul-27 08:33N 49°38' W 124°02'0 0.0
2015-Jul-27 07:27N 49°38' W 124°02'0 0.0
2015-Jul-27 06:33N 49°38' W 124°02'0 0.0
2015-Jul-27 05:33N 49°38' W 124°02'0 0.0
2015-Jul-27 04:33N 49°38' W 124°02'0 0.0
2015-Jul-27 03:33N 49°38' W 124°02'0 0.0
2015-Jul-27 02:33N 49°38' W 124°02'0 0.0
2015-Jul-27 01:33N 49°38' W 124°02'0 0.0
2015-Jul-27 00:33N 49°38' W 124°02'0 0.0
2015-Jul-26 23:32N 49°38' W 124°02'5 4.6
2015-Jul-26 22:33N 49°33' W 124°02'9 9.2
2015-Jul-26 21:33N 49°27' W 123°51'9 9.4
2015-Jul-26 20:33N 49°23' W 123°38'9 9.0
2015-Jul-26 19:32N 49°20' W 123°25'8 8.5
2015-Jul-26 18:33N 49°19' W 123°12'3 3.3
2015-Jul-26 17:31N 49°18' W 123°08'0 0.0
2015-Jul-26 16:31N 49°18' W 123°08'0 0.0
2015-Jul-26 15:31N 49°18' W 123°08'0 0.0
2015-Jul-26 14:31N 49°18' W 123°08'0 0.0
2015-Jul-26 13:33N 49°18' W 123°08'0 0.0
2015-Jul-26 12:33N 49°18' W 123°08'0 0.0
2015-Jul-26 11:33N 49°18' W 123°08'0 0.0
2015-Jul-26 10:33N 49°18' W 123°08'0 0.0
2015-Jul-26 09:33N 49°18' W 123°08'0 0.0
2015-Jul-26 08:31N 49°18' W 123°08'0 0.0
2015-Jul-26 07:31N 49°18' W 123°08'0 0.1
2015-Jul-26 06:33N 49°18' W 123°08'1 1.4
2015-Jul-26 05:32N 49°17' W 123°10'0 0.0
2015-Jul-26 04:32N 49°17' W 123°10'0 0.0
2015-Jul-26 03:32N 49°17' W 123°10'1 1.4
2015-Jul-26 02:33N 49°19' W 123°10'2 1.7
2015-Jul-26 01:31N 49°18' W 123°08'0 0.0
2015-Jul-26 00:31N 49°18' W 123°08'0 0.0
2015-Jul-25 23:31N 49°18' W 123°08'0 0.0
2015-Jul-25 22:31N 49°18' W 123°08'0 0.0
2015-Jul-25 21:31N 49°18' W 123°08'0 0.0
2015-Jul-25 20:31N 49°18' W 123°08'0 0.0
2015-Jul-25 19:31N 49°18' W 123°08'0 0.0
2015-Jul-25 18:31N 49°18' W 123°08'0 0.0
2015-Jul-25 17:31N 49°18' W 123°08'0 0.0
2015-Jul-25 16:31N 49°18' W 123°08'0 0.0
2015-Jul-25 15:31N 49°18' W 123°08'0 0.0
2015-Jul-25 14:31N 49°18' W 123°08'0 0.0
2015-Jul-25 13:31N 49°18' W 123°08'0 0.0
2015-Jul-25 12:31N 49°18' W 123°08'0 0.0
2015-Jul-25 11:31N 49°18' W 123°08'0 0.0
2015-Jul-25 10:31N 49°18' W 123°08'0 0.0
2015-Jul-25 09:31N 49°18' W 123°08'0 0.0
2015-Jul-25 08:31N 49°18' W 123°08'0 0.0
2015-Jul-25 07:31N 49°18' W 123°08'0 0.0
2015-Jul-25 06:32N 49°18' W 123°08'0 0.0
2015-Jul-25 05:32N 49°18' W 123°08'0 0.0
2015-Jul-25 04:32N 49°18' W 123°08'0 0.0
2015-Jul-25 03:32N 49°18' W 123°08'0 0.0
2015-Jul-25 02:32N 49°18' W 123°08'0 0.0
2015-Jul-25 01:32N 49°18' W 123°08'0 0.0
2015-Jul-25 00:32N 49°18' W 123°08'0 0.0
2015-Jul-24 23:32N 49°18' W 123°08'0 0.0
2015-Jul-24 22:32N 49°18' W 123°08'0 0.0
2015-Jul-24 21:32N 49°18' W 123°08'0 0.0
2015-Jul-24 20:32N 49°18' W 123°08'0 0.0
2015-Jul-24 19:32N 49°18' W 123°08'0 0.0
2015-Jul-24 18:32N 49°18' W 123°08'0 0.0
2015-Jul-24 17:32N 49°18' W 123°08'0 0.0
2015-Jul-24 16:32N 49°18' W 123°08'0 0.0
2015-Jul-24 15:32N 49°18' W 123°08'0 0.0
2015-Jul-24 14:32N 49°18' W 123°08'0 0.0
2015-Jul-24 13:32N 49°18' W 123°08'0 0.0
2015-Jul-24 12:32N 49°18' W 123°08'0 0.0
2015-Jul-24 11:32N 49°18' W 123°08'0 0.0
2015-Jul-24 10:32N 49°18' W 123°08'0 0.0
2015-Jul-24 09:32N 49°18' W 123°08'0 0.0
2015-Jul-24 08:32N 49°18' W 123°08'0 0.0
2015-Jul-24 07:32N 49°18' W 123°08'0 0.0
2015-Jul-24 06:32N 49°18' W 123°08'0 0.0
2015-Jul-24 05:32N 49°18' W 123°08'0 0.0
2015-Jul-24 04:32N 49°18' W 123°08'0 0.0
2015-Jul-24 03:32N 49°18' W 123°08'0 0.0
2015-Jul-24 02:32N 49°18' W 123°08'0 0.0
2015-Jul-24 01:32N 49°18' W 123°08'0 0.0
2015-Jul-24 00:32N 49°18' W 123°08'0 0.0
2015-Jul-23 23:32N 49°18' W 123°08'0 0.0
2015-Jul-23 22:32N 49°18' W 123°08'0 0.0
2015-Jul-23 21:32N 49°18' W 123°08'0 0.0
2015-Jul-23 20:32N 49°18' W 123°08'0 0.0
2015-Jul-23 19:32N 49°18' W 123°08'0 0.0
2015-Jul-23 18:32N 49°18' W 123°08'0 0.0
2015-Jul-23 17:32N 49°18' W 123°08'0 0.0
2015-Jul-23 16:32N 49°18' W 123°08'0 0.0
2015-Jul-23 15:32N 49°18' W 123°08'0 0.0
2015-Jul-23 14:32N 49°18' W 123°08'0 0.0
2015-Jul-23 13:32N 49°18' W 123°08'0 0.0
2015-Jul-23 12:32N 49°18' W 123°08'0 0.0
2015-Jul-23 11:32N 49°18' W 123°08'0 0.0
2015-Jul-23 10:31N 49°18' W 123°08'0 0.0
2015-Jul-23 09:31N 49°18' W 123°08'0 0.0
2015-Jul-23 08:31N 49°18' W 123°08'0 0.0
2015-Jul-23 07:31N 49°18' W 123°08'0 0.0
2015-Jul-23 06:31N 49°18' W 123°08'0 0.0
2015-Jul-23 05:32N 49°18' W 123°08'0 0.0
2015-Jul-23 04:32N 49°18' W 123°08'1 0.8
2015-Jul-23 03:33N 49°18' W 123°07'2 1.9
2015-Jul-23 02:33N 49°17' W 123°08'2 2.4
2015-Jul-23 01:33N 49°18' W 123°05'2 1.6
2015-Jul-23 00:33N 49°18' W 123°08'0 0.0
2015-Jul-22 23:33N 49°18' W 123°08'0 0.0
2015-Jul-22 22:33N 49°18' W 123°08'0 0.0
2015-Jul-22 21:33N 49°18' W 123°08'0 0.0
2015-Jul-22 20:33N 49°18' W 123°08'0 0.0
2015-Jul-22 19:33N 49°18' W 123°08'0 0.0
2015-Jul-22 18:33N 49°18' W 123°08'0 0.0
2015-Jul-22 17:33N 49°18' W 123°08'0 0.0
2015-Jul-22 16:33N 49°18' W 123°08'0 0.0
2015-Jul-22 15:33N 49°18' W 123°08'0 0.0
2015-Jul-22 14:33N 49°18' W 123°08'0 0.0
2015-Jul-22 13:33N 49°18' W 123°08'0 0.0
2015-Jul-22 12:33N 49°18' W 123°08'0 0.0
2015-Jul-22 11:33N 49°18' W 123°08'0 0.0
2015-Jul-22 10:33N 49°18' W 123°08'0 0.0
2015-Jul-22 09:33N 49°18' W 123°08'0 0.0
2015-Jul-22 08:33N 49°18' W 123°08'0 0.0
2015-Jul-22 07:30N 49°18' W 123°08'0 0.0
2015-Jul-22 06:33N 49°18' W 123°08'0 0.0
2015-Jul-22 05:33N 49°18' W 123°08'0 0.0
2015-Jul-22 04:33N 49°18' W 123°08'0 0.0
2015-Jul-22 03:33N 49°18' W 123°08'0 0.0
2015-Jul-22 02:33N 49°18' W 123°08'0 0.0
2015-Jul-22 01:33N 49°18' W 123°08'0 0.0
2015-Jul-22 00:33N 49°18' W 123°08'0 0.0
2015-Jul-21 23:33N 49°18' W 123°08'0 0.0
2015-Jul-21 22:27N 49°18' W 123°08'0 0.0
2015-Jul-21 21:33N 49°18' W 123°08'0 0.0
2015-Jul-21 20:33N 49°18' W 123°08'0 0.0
2015-Jul-21 19:33N 49°18' W 123°08'0 0.0
2015-Jul-21 18:33N 49°18' W 123°08'0 0.0
2015-Jul-21 17:33N 49°18' W 123°08'0 0.0
2015-Jul-21 16:33N 49°18' W 123°08'0 0.0
2015-Jul-21 15:33N 49°18' W 123°08'0 0.0
2015-Jul-21 14:33N 49°18' W 123°08'0 0.0
2015-Jul-21 13:33N 49°18' W 123°08'0 0.0
2015-Jul-21 12:33N 49°18' W 123°08'0 0.0
2015-Jul-21 11:33N 49°18' W 123°08'0 0.0
2015-Jul-21 10:33N 49°18' W 123°08'0 0.0
2015-Jul-21 09:33N 49°18' W 123°08'0 0.0
2015-Jul-21 08:33N 49°18' W 123°08'0 0.0
2015-Jul-21 07:33N 49°18' W 123°08'0 0.0
2015-Jul-21 06:33N 49°18' W 123°08'0 0.0
2015-Jul-21 05:30N 49°18' W 123°08'0 0.0
2015-Jul-21 04:33N 49°18' W 123°08'0 0.0
2015-Jul-21 03:30N 49°18' W 123°08'0 0.0
2015-Jul-21 02:30N 49°18' W 123°08'0 0.0
2015-Jul-21 01:30N 49°18' W 123°08'0 0.0
2015-Jul-21 00:30N 49°18' W 123°08'0 0.0
2015-Jul-20 23:33N 49°18' W 123°08'0 0.0
2015-Jul-20 22:30N 49°18' W 123°08'0 0.0
2015-Jul-20 21:33N 49°18' W 123°08'0 0.0
2015-Jul-20 20:33N 49°18' W 123°08'0 0.0
2015-Jul-20 19:33N 49°18' W 123°08'0 0.0
2015-Jul-20 18:33N 49°18' W 123°08'0 0.0
2015-Jul-20 17:33N 49°18' W 123°08'0 0.0
2015-Jul-20 16:33N 49°18' W 123°08'0 0.0
2015-Jul-20 15:33N 49°18' W 123°08'0 0.0
2015-Jul-20 14:33N 49°18' W 123°08'0 0.0
2015-Jul-20 13:33N 49°18' W 123°08'0 0.0
2015-Jul-20 12:33N 49°18' W 123°08'0 0.0
2015-Jul-20 11:31N 49°18' W 123°08'0 0.0
2015-Jul-20 10:31N 49°18' W 123°08'0 0.0
2015-Jul-20 09:31N 49°18' W 123°08'0 0.0
2015-Jul-20 08:32N 49°18' W 123°08'0 0.0
2015-Jul-20 07:32N 49°18' W 123°08'0 0.0
2015-Jul-20 06:32N 49°18' W 123°08'0 0.0
2015-Jul-20 05:32N 49°18' W 123°08'0 0.0
2015-Jul-20 04:32N 49°18' W 123°08'0 0.0
2015-Jul-20 03:32N 49°18' W 123°08'0 0.0
2015-Jul-20 02:32N 49°18' W 123°08'0 0.0
2015-Jul-20 01:32N 49°18' W 123°08'0 0.0
2015-Jul-20 00:32N 49°18' W 123°08'0 0.0
2015-Jul-19 23:32N 49°18' W 123°08'0 0.0
2015-Jul-19 22:32N 49°18' W 123°08'0 0.0
2015-Jul-19 21:32N 49°18' W 123°08'0 0.0
2015-Jul-19 20:32N 49°18' W 123°08'0 0.0
2015-Jul-19 19:32N 49°18' W 123°08'0 0.0
2015-Jul-19 18:32N 49°18' W 123°08'0 0.0
2015-Jul-19 17:32N 49°18' W 123°08'0 0.0
2015-Jul-19 16:32N 49°18' W 123°08'0 0.0
2015-Jul-19 15:32N 49°18' W 123°08'0 0.0
2015-Jul-19 14:32N 49°18' W 123°08'0 0.0
2015-Jul-19 13:32N 49°18' W 123°08'0 0.0
2015-Jul-19 12:32N 49°18' W 123°08'0 0.0
2015-Jul-19 11:34N 49°18' W 123°08'0 0.0
2015-Jul-19 10:34N 49°18' W 123°08'0 0.0
2015-Jul-19 09:34N 49°18' W 123°08'0 0.0
2015-Jul-19 08:31N 49°18' W 123°08'0 0.0
2015-Jul-19 07:34N 49°18' W 123°08'0 0.0
2015-Jul-19 06:34N 49°18' W 123°08'0 0.0
2015-Jul-19 05:34N 49°18' W 123°08'0 0.0
2015-Jul-19 04:34N 49°18' W 123°08'0 0.0
2015-Jul-19 00:34N 49°18' W 123°08'0 0.0
2015-Jul-18 23:34N 49°18' W 123°08'0 0.0
2015-Jul-18 22:34N 49°18' W 123°08'0 0.0
2015-Jul-18 21:31N 49°18' W 123°08'0 0.0
2015-Jul-18 20:34N 49°18' W 123°08'0 0.0
2015-Jul-18 19:34N 49°18' W 123°08'0 0.0
2015-Jul-18 18:31N 49°18' W 123°08'0 0.0
2015-Jul-18 17:31N 49°18' W 123°08'0 0.0
2015-Jul-18 16:34N 49°18' W 123°08'0 0.0
2015-Jul-18 15:33N 49°18' W 123°08'0 0.0
2015-Jul-18 14:34N 49°18' W 123°08'0 0.0
2015-Jul-18 13:34N 49°18' W 123°08'0 0.0
2015-Jul-18 12:34N 49°18' W 123°08'0 0.0
2015-Jul-18 11:33N 49°18' W 123°08'0 0.0
2015-Jul-18 10:28N 49°18' W 123°08'0 0.0
2015-Jul-18 09:34N 49°18' W 123°08'0 0.0
2015-Jul-18 08:31N 49°18' W 123°08'0 0.0
2015-Jul-18 07:34N 49°18' W 123°08'0 0.0
2015-Jul-18 06:34N 49°18' W 123°08'0 0.0
2015-Jul-18 05:34N 49°18' W 123°08'0 0.0
2015-Jul-18 04:33N 49°18' W 123°08'0 0.0
2015-Jul-18 03:34N 49°18' W 123°08'0 0.0
2015-Jul-18 02:34N 49°18' W 123°08'0 0.0
2015-Jul-18 01:33N 49°18' W 123°08'0 0.0
2015-Jul-18 00:33N 49°18' W 123°08'0 0.0
2015-Jul-17 23:33N 49°18' W 123°08'0 0.0
2015-Jul-17 22:33N 49°18' W 123°08'  
Track history (hours):
 
Tides and Currents Weather Stations Pressure Air Temp Water Temp Dewpoint Dewpoint Depression Visibility Wind Speed Wind Dir Waves Ship Positions

Midnight Sun

Last reported at 2015-Jul-27 22:06 UTC. Time now 2015-Aug-04 15:57 UTC.
Position N 49°56' W 124°42'.

Length 25 m.

Type: Pleasure craft. MMSI: 316001152.

Date/timePositionNaut miles runAvg speedWind from/ knotsBaromVisibWave heightAir tempDewpointWater temp
2015-Jul-27 22:06N 49°56' W 124°42'5 9.1
2015-Jul-27 21:33N 49°52' W 124°37'6 5.5
2015-Jul-27 20:30N 49°48' W 124°31'7 7.7
2015-Jul-27 19:33N 49°44' W 124°22'9 8.7
2015-Jul-27 18:33N 49°39' W 124°10'6 6.0
2015-Jul-27 17:33N 49°38' W 124°01'0 0.2
2015-Jul-27 16:32N 49°38' W 124°02'0 0.0
2015-Jul-27 15:32N 49°38' W 124°02'0 0.0
2015-Jul-27 14:32N 49°38' W 124°02'0 0.0
2015-Jul-27 13:31N 49°38' W 124°02'0 0.0
2015-Jul-27 12:31N 49°38' W 124°02'0 0.0
2015-Jul-27 11:33N 49°38' W 124°02'0 0.0
2015-Jul-27 10:33N 49°38' W 124°02'0 0.0
2015-Jul-27 09:33N 49°38' W 124°02'0 0.0
2015-Jul-27 08:33N 49°38' W 124°02'0 0.0
2015-Jul-27 07:27N 49°38' W 124°02'0 0.0
2015-Jul-27 06:33N 49°38' W 124°02'0 0.0
2015-Jul-27 05:33N 49°38' W 124°02'0 0.0
2015-Jul-27 04:33N 49°38' W 124°02'0 0.0
2015-Jul-27 03:33N 49°38' W 124°02'0 0.0
2015-Jul-27 02:33N 49°38' W 124°02'0 0.0
2015-Jul-27 01:33N 49°38' W 124°02'0 0.0
2015-Jul-27 00:33N 49°38' W 124°02'0 0.0
2015-Jul-26 23:32N 49°38' W 124°02'5 4.6
2015-Jul-26 22:33N 49°33' W 124°02'9 9.2
2015-Jul-26 21:33N 49°27' W 123°51'9 9.4
2015-Jul-26 20:33N 49°23' W 123°38'9 9.0
2015-Jul-26 19:32N 49°20' W 123°25'8 8.5
2015-Jul-26 18:33N 49°19' W 123°12'3 3.3
2015-Jul-26 17:31N 49°18' W 123°08'0 0.0
2015-Jul-26 16:31N 49°18' W 123°08'0 0.0
2015-Jul-26 15:31N 49°18' W 123°08'0 0.0
2015-Jul-26 14:31N 49°18' W 123°08'0 0.0
2015-Jul-26 13:33N 49°18' W 123°08'0 0.0
2015-Jul-26 12:33N 49°18' W 123°08'0 0.0
2015-Jul-26 11:33N 49°18' W 123°08'0 0.0
2015-Jul-26 10:33N 49°18' W 123°08'0 0.0
2015-Jul-26 09:33N 49°18' W 123°08'0 0.0
2015-Jul-26 08:31N 49°18' W 123°08'0 0.0
2015-Jul-26 07:31N 49°18' W 123°08'0 0.1
2015-Jul-26 06:33N 49°18' W 123°08'1 1.4
2015-Jul-26 05:32N 49°17' W 123°10'0 0.0
2015-Jul-26 04:32N 49°17' W 123°10'0 0.0
2015-Jul-26 03:32N 49°17' W 123°10'1 1.4
2015-Jul-26 02:33N 49°19' W 123°10'2 1.7
2015-Jul-26 01:31N 49°18' W 123°08'0 0.0
2015-Jul-26 00:31N 49°18' W 123°08'0 0.0
2015-Jul-25 23:31N 49°18' W 123°08'0 0.0
2015-Jul-25 22:31N 49°18' W 123°08'0 0.0
2015-Jul-25 21:31N 49°18' W 123°08'0 0.0
2015-Jul-25 20:31N 49°18' W 123°08'0 0.0
2015-Jul-25 19:31N 49°18' W 123°08'0 0.0
2015-Jul-25 18:31N 49°18' W 123°08'0 0.0
2015-Jul-25 17:31N 49°18' W 123°08'0 0.0
2015-Jul-25 16:31N 49°18' W 123°08'0 0.0
2015-Jul-25 15:31N 49°18' W 123°08'0 0.0
2015-Jul-25 14:31N 49°18' W 123°08'0 0.0
2015-Jul-25 13:31N 49°18' W 123°08'0 0.0
2015-Jul-25 12:31N 49°18' W 123°08'0 0.0
2015-Jul-25 11:31N 49°18' W 123°08'0 0.0
2015-Jul-25 10:31N 49°18' W 123°08'0 0.0
2015-Jul-25 09:31N 49°18' W 123°08'0 0.0
2015-Jul-25 08:31N 49°18' W 123°08'0 0.0
2015-Jul-25 07:31N 49°18' W 123°08'0 0.0
2015-Jul-25 06:32N 49°18' W 123°08'0 0.0
2015-Jul-25 05:32N 49°18' W 123°08'0 0.0
2015-Jul-25 04:32N 49°18' W 123°08'0 0.0
2015-Jul-25 03:32N 49°18' W 123°08'0 0.0
2015-Jul-25 02:32N 49°18' W 123°08'0 0.0
2015-Jul-25 01:32N 49°18' W 123°08'0 0.0
2015-Jul-25 00:32N 49°18' W 123°08'0 0.0
2015-Jul-24 23:32N 49°18' W 123°08'0 0.0
2015-Jul-24 22:32N 49°18' W 123°08'0 0.0
2015-Jul-24 21:32N 49°18' W 123°08'0 0.0
2015-Jul-24 20:32N 49°18' W 123°08'0 0.0
2015-Jul-24 19:32N 49°18' W 123°08'0 0.0
2015-Jul-24 18:32N 49°18' W 123°08'0 0.0
2015-Jul-24 17:32N 49°18' W 123°08'0 0.0
2015-Jul-24 16:32N 49°18' W 123°08'0 0.0
2015-Jul-24 15:32N 49°18' W 123°08'0 0.0
2015-Jul-24 14:32N 49°18' W 123°08'0 0.0
2015-Jul-24 13:32N 49°18' W 123°08'0 0.0
2015-Jul-24 12:32N 49°18' W 123°08'0 0.0
2015-Jul-24 11:32N 49°18' W 123°08'0 0.0
2015-Jul-24 10:32N 49°18' W 123°08'0 0.0
2015-Jul-24 09:32N 49°18' W 123°08'0 0.0
2015-Jul-24 08:32N 49°18' W 123°08'0 0.0
2015-Jul-24 07:32N 49°18' W 123°08'0 0.0
2015-Jul-24 06:32N 49°18' W 123°08'0 0.0
2015-Jul-24 05:32N 49°18' W 123°08'0 0.0
2015-Jul-24 04:32N 49°18' W 123°08'0 0.0
2015-Jul-24 03:32N 49°18' W 123°08'0 0.0
2015-Jul-24 02:32N 49°18' W 123°08'0 0.0
2015-Jul-24 01:32N 49°18' W 123°08'0 0.0
2015-Jul-24 00:32N 49°18' W 123°08'0 0.0
2015-Jul-23 23:32N 49°18' W 123°08'0 0.0
2015-Jul-23 22:32N 49°18' W 123°08'0 0.0
2015-Jul-23 21:32N 49°18' W 123°08'0 0.0
2015-Jul-23 20:32N 49°18' W 123°08'0 0.0
2015-Jul-23 19:32N 49°18' W 123°08'0 0.0
2015-Jul-23 18:32N 49°18' W 123°08'0 0.0
2015-Jul-23 17:32N 49°18' W 123°08'0 0.0
2015-Jul-23 16:32N 49°18' W 123°08'0 0.0
2015-Jul-23 15:32N 49°18' W 123°08'0 0.0
2015-Jul-23 14:32N 49°18' W 123°08'0 0.0
2015-Jul-23 13:32N 49°18' W 123°08'0 0.0
2015-Jul-23 12:32N 49°18' W 123°08'0 0.0
2015-Jul-23 11:32N 49°18' W 123°08'0 0.0
2015-Jul-23 10:31N 49°18' W 123°08'0 0.0
2015-Jul-23 09:31N 49°18' W 123°08'0 0.0
2015-Jul-23 08:31N 49°18' W 123°08'0 0.0
2015-Jul-23 07:31N 49°18' W 123°08'0 0.0
2015-Jul-23 06:31N 49°18' W 123°08'0 0.0
2015-Jul-23 05:32N 49°18' W 123°08'0 0.0
2015-Jul-23 04:32N 49°18' W 123°08'1 0.8
2015-Jul-23 03:33N 49°18' W 123°07'2 1.9
2015-Jul-23 02:33N 49°17' W 123°08'2 2.4
2015-Jul-23 01:33N 49°18' W 123°05'2 1.6
2015-Jul-23 00:33N 49°18' W 123°08'0 0.0
2015-Jul-22 23:33N 49°18' W 123°08'0 0.0
2015-Jul-22 22:33N 49°18' W 123°08'0 0.0
2015-Jul-22 21:33N 49°18' W 123°08'0 0.0
2015-Jul-22 20:33N 49°18' W 123°08'0 0.0
2015-Jul-22 19:33N 49°18' W 123°08'0 0.0
2015-Jul-22 18:33N 49°18' W 123°08'0 0.0
2015-Jul-22 17:33N 49°18' W 123°08'0 0.0
2015-Jul-22 16:33N 49°18' W 123°08'0 0.0
2015-Jul-22 15:33N 49°18' W 123°08'0 0.0
2015-Jul-22 14:33N 49°18' W 123°08'0 0.0
2015-Jul-22 13:33N 49°18' W 123°08'0 0.0
2015-Jul-22 12:33N 49°18' W 123°08'0 0.0
2015-Jul-22 11:33N 49°18' W 123°08'0 0.0
2015-Jul-22 10:33N 49°18' W 123°08'0 0.0
2015-Jul-22 09:33N 49°18' W 123°08'0 0.0
2015-Jul-22 08:33N 49°18' W 123°08'0 0.0
2015-Jul-22 07:30N 49°18' W 123°08'0 0.0
2015-Jul-22 06:33N 49°18' W 123°08'0 0.0
2015-Jul-22 05:33N 49°18' W 123°08'0 0.0
2015-Jul-22 04:33N 49°18' W 123°08'0 0.0
2015-Jul-22 03:33N 49°18' W 123°08'0 0.0
2015-Jul-22 02:33N 49°18' W 123°08'0 0.0
2015-Jul-22 01:33N 49°18' W 123°08'0 0.0
2015-Jul-22 00:33N 49°18' W 123°08'0 0.0
2015-Jul-21 23:33N 49°18' W 123°08'0 0.0
2015-Jul-21 22:27N 49°18' W 123°08'0 0.0
2015-Jul-21 21:33N 49°18' W 123°08'0 0.0
2015-Jul-21 20:33N 49°18' W 123°08'0 0.0
2015-Jul-21 19:33N 49°18' W 123°08'0 0.0
2015-Jul-21 18:33N 49°18' W 123°08'0 0.0
2015-Jul-21 17:33N 49°18' W 123°08'0 0.0
2015-Jul-21 16:33N 49°18' W 123°08'0 0.0
2015-Jul-21 15:33N 49°18' W 123°08'0 0.0
2015-Jul-21 14:33N 49°18' W 123°08'0 0.0
2015-Jul-21 13:33N 49°18' W 123°08'0 0.0
2015-Jul-21 12:33N 49°18' W 123°08'0 0.0
2015-Jul-21 11:33N 49°18' W 123°08'0 0.0
2015-Jul-21 10:33N 49°18' W 123°08'0 0.0
2015-Jul-21 09:33N 49°18' W 123°08'0 0.0
2015-Jul-21 08:33N 49°18' W 123°08'0 0.0
2015-Jul-21 07:33N 49°18' W 123°08'0 0.0
2015-Jul-21 06:33N 49°18' W 123°08'0 0.0
2015-Jul-21 05:30N 49°18' W 123°08'0 0.0
2015-Jul-21 04:33N 49°18' W 123°08'0 0.0
2015-Jul-21 03:30N 49°18' W 123°08'0 0.0
2015-Jul-21 02:30N 49°18' W 123°08'0 0.0
2015-Jul-21 01:30N 49°18' W 123°08'0 0.0
2015-Jul-21 00:30N 49°18' W 123°08'0 0.0
2015-Jul-20 23:33N 49°18' W 123°08'0 0.0
2015-Jul-20 22:30N 49°18' W 123°08'0 0.0
2015-Jul-20 21:33N 49°18' W 123°08'0 0.0
2015-Jul-20 20:33N 49°18' W 123°08'0 0.0
2015-Jul-20 19:33N 49°18' W 123°08'0 0.0
2015-Jul-20 18:33N 49°18' W 123°08'0 0.0
2015-Jul-20 17:33N 49°18' W 123°08'0 0.0
2015-Jul-20 16:33N 49°18' W 123°08'0 0.0
2015-Jul-20 15:33N 49°18' W 123°08'0 0.0
2015-Jul-20 14:33N 49°18' W 123°08'0 0.0
2015-Jul-20 13:33N 49°18' W 123°08'0 0.0
2015-Jul-20 12:33N 49°18' W 123°08'0 0.0
2015-Jul-20 11:31N 49°18' W 123°08'0 0.0
2015-Jul-20 10:31N 49°18' W 123°08'0 0.0
2015-Jul-20 09:31N 49°18' W 123°08'0 0.0
2015-Jul-20 08:32N 49°18' W 123°08'0 0.0
2015-Jul-20 07:32N 49°18' W 123°08'0 0.0
2015-Jul-20 06:32N 49°18' W 123°08'0 0.0
2015-Jul-20 05:32N 49°18' W 123°08'0 0.0
2015-Jul-20 04:32N 49°18' W 123°08'0 0.0
2015-Jul-20 03:32N 49°18' W 123°08'0 0.0
2015-Jul-20 02:32N 49°18' W 123°08'0 0.0
2015-Jul-20 01:32N 49°18' W 123°08'0 0.0
2015-Jul-20 00:32N 49°18' W 123°08'0 0.0
2015-Jul-19 23:32N 49°18' W 123°08'0 0.0
2015-Jul-19 22:32N 49°18' W 123°08'0 0.0
2015-Jul-19 21:32N 49°18' W 123°08'0 0.0
2015-Jul-19 20:32N 49°18' W 123°08'0 0.0
2015-Jul-19 19:32N 49°18' W 123°08'0 0.0
2015-Jul-19 18:32N 49°18' W 123°08'0 0.0
2015-Jul-19 17:32N 49°18' W 123°08'0 0.0
2015-Jul-19 16:32N 49°18' W 123°08'0 0.0
2015-Jul-19 15:32N 49°18' W 123°08'0 0.0
2015-Jul-19 14:32N 49°18' W 123°08'0 0.0
2015-Jul-19 13:32N 49°18' W 123°08'0 0.0
2015-Jul-19 12:32N 49°18' W 123°08'0 0.0
2015-Jul-19 11:34N 49°18' W 123°08'0 0.0
2015-Jul-19 10:34N 49°18' W 123°08'0 0.0
2015-Jul-19 09:34N 49°18' W 123°08'0 0.0
2015-Jul-19 08:31N 49°18' W 123°08'0 0.0
2015-Jul-19 07:34N 49°18' W 123°08'0 0.0
2015-Jul-19 06:34N 49°18' W 123°08'0 0.0
2015-Jul-19 05:34N 49°18' W 123°08'0 0.0
2015-Jul-19 04:34N 49°18' W 123°08'0 0.0
2015-Jul-19 00:34N 49°18' W 123°08'0 0.0
2015-Jul-18 23:34N 49°18' W 123°08'0 0.0
2015-Jul-18 22:34N 49°18' W 123°08'0 0.0
2015-Jul-18 21:31N 49°18' W 123°08'0 0.0
2015-Jul-18 20:34N 49°18' W 123°08'0 0.0
2015-Jul-18 19:34N 49°18' W 123°08'0 0.0
2015-Jul-18 18:31N 49°18' W 123°08'0 0.0
2015-Jul-18 17:31N 49°18' W 123°08'0 0.0
2015-Jul-18 16:34N 49°18' W 123°08'0 0.0
2015-Jul-18 15:33N 49°18' W 123°08'0 0.0
2015-Jul-18 14:34N 49°18' W 123°08'0 0.0
2015-Jul-18 13:34N 49°18' W 123°08'0 0.0
2015-Jul-18 12:34N 49°18' W 123°08'0 0.0
2015-Jul-18 11:33N 49°18' W 123°08'0 0.0
2015-Jul-18 10:28N 49°18' W 123°08'0 0.0
2015-Jul-18 09:34N 49°18' W 123°08'0 0.0
2015-Jul-18 08:31N 49°18' W 123°08'0 0.0
2015-Jul-18 07:34N 49°18' W 123°08'0 0.0
2015-Jul-18 06:34N 49°18' W 123°08'0 0.0
2015-Jul-18 05:34N 49°18' W 123°08'0 0.0
2015-Jul-18 04:33N 49°18' W 123°08'0 0.0
2015-Jul-18 03:34N 49°18' W 123°08'0 0.0
2015-Jul-18 02:34N 49°18' W 123°08'0 0.0
2015-Jul-18 01:33N 49°18' W 123°08'0 0.0
2015-Jul-18 00:33N 49°18' W 123°08'0 0.0
2015-Jul-17 23:33N 49°18' W 123°08'0 0.0
2015-Jul-17 22:33N 49°18' W 123°08'  

Dump ship's entire track history